Etusivu
METAR-TAF:

METAR-TAF

Lentoasemat :

Jönköping, Ruotsi

Leveyspiiri: 57-46N, Pituuspiiri: 014-05E, korkeus merenpinnasta: 226 m

Tämänhetkinen sää

Tämä raportti tehtiin 3 tuntia ja 4 minuuttia sitten, kello 03.20 UTC
Tuuli 1 kn eri suunnista
Lämpötila -1°C
Kosteus 100%
Ilmanpaine 1018 hPa
Näkyvyys: 0150 m
jäätävää sumua

METAR: ESGJ 270320Z AUTO VRB01KT 0150 R01/0500N R19/0650N FZFG OVC001/// M01/M01 Q1018

Aika: 07:24 (06:24 UTC)

Sääennuste

Tämä raportti tehtiin 6 tuntia ja 54 minuuttia sitten, kello 23.30 UTC
Ennuste voimassa 27. päivästä klo 00 UTC - 27. päivään klo 02 UTC
Tuuli 5 kn lännestä/luoteesta
Näkyvyys 10 km tai enemmän
ei pilviä alle 1500 m:ssä eikä cumulonimbus-pilviä
Todennäköisyys 40%
27. päivästä klo 00 UTC - 27. päivään klo 02 UTC
Näkyvyys: 1200 m
Hajonneita pilviä 300 ft:n korkeudessa
sumuhattaroita

TAF: ESGJ 262330Z 2700/2702 30005KT CAVOK PROB40 2700/2702 1200 BCFG BKN003

Säähavainnot ja -ennusteet yli 4000 lentoasemalta (METAR- ja TAF-raportit).

Käytössä olevat sääasemat on merkitty karttaan keltaisilla ja punaisilla pisteillä.

Aseta hiiri pisteen päälle nähdäksesi sääaseman nimen.

Klikkaa sitten nähdäksesi säähavainnot ja -ennusteet.

Kartan vaihtaminen: klikkaa mustalla rastilla varustettuja vihreitä pisteitä, niin voit zoomata sisään; viivalla varustettua vihreää pistettä, niin voit zoomata ulos tai vihreitä nuolia, niin pääset viereisille kartoille.


METAR-TAF: